sensor_id;sensor_type;location;lat;lon;timestamp;temperature;humidity
10472;DHT22;5283;48.876;8.962;2023-07-13T00:00:38;17.50;99.90
10472;DHT22;5283;48.876;8.962;2023-07-13T00:03:05;17.50;99.90
10472;DHT22;5283;48.876;8.962;2023-07-13T00:05:32;17.40;99.90
10472;DHT22;5283;48.876;8.962;2023-07-13T00:07:58;17.40;99.90
10472;DHT22;5283;48.876;8.962;2023-07-13T00:10:25;17.50;99.90
10472;DHT22;5283;48.876;8.962;2023-07-13T00:12:53;17.50;99.90
10472;DHT22;5283;48.876;8.962;2023-07-13T00:15:23;17.70;99.90
10472;DHT22;5283;48.876;8.962;2023-07-13T00:17:52;17.60;99.90
10472;DHT22;5283;48.876;8.962;2023-07-13T00:20:20;17.60;99.90
10472;DHT22;5283;48.876;8.962;2023-07-13T00:22:49;17.80;99.90
10472;DHT22;5283;48.876;8.962;2023-07-13T00:25:16;17.80;99.90
10472;DHT22;5283;48.876;8.962;2023-07-13T00:27:44;18.00;99.90
10472;DHT22;5283;48.876;8.962;2023-07-13T00:30:11;18.00;99.90
10472;DHT22;5283;48.876;8.962;2023-07-13T00:32:38;18.10;99.90
10472;DHT22;5283;48.876;8.962;2023-07-13T00:35:05;18.10;99.90
10472;DHT22;5283;48.876;8.962;2023-07-13T00:37:32;18.10;99.90
10472;DHT22;5283;48.876;8.962;2023-07-13T00:39:59;18.10;99.90
10472;DHT22;5283;48.876;8.962;2023-07-13T00:42:25;18.10;99.90
10472;DHT22;5283;48.876;8.962;2023-07-13T00:47:40;18.00;99.90
10472;DHT22;5283;48.876;8.962;2023-07-13T00:50:10;18.00;99.90
10472;DHT22;5283;48.876;8.962;2023-07-13T00:52:45;18.00;99.90
10472;DHT22;5283;48.876;8.962;2023-07-13T00:55:13;18.00;99.90
10472;DHT22;5283;48.876;8.962;2023-07-13T00:57:41;17.90;99.90
10472;DHT22;5283;48.876;8.962;2023-07-13T01:00:09;17.90;99.90
10472;DHT22;5283;48.876;8.962;2023-07-13T01:02:38;17.80;99.90
10472;DHT22;5283;48.876;8.962;2023-07-13T01:05:13;17.70;99.90
10472;DHT22;5283;48.876;8.962;2023-07-13T01:07:41;17.60;99.90
10472;DHT22;5283;48.876;8.962;2023-07-13T01:10:08;17.60;99.90
10472;DHT22;5283;48.876;8.962;2023-07-13T01:12:35;17.40;99.90
10472;DHT22;5283;48.876;8.962;2023-07-13T01:15:04;17.30;99.90
10472;DHT22;5283;48.876;8.962;2023-07-13T01:17:33;17.30;99.90
10472;DHT22;5283;48.876;8.962;2023-07-13T01:20:00;17.10;99.90
10472;DHT22;5283;48.876;8.962;2023-07-13T01:22:27;17.00;99.90
10472;DHT22;5283;48.876;8.962;2023-07-13T01:24:54;16.90;99.90
10472;DHT22;5283;48.876;8.962;2023-07-13T01:27:23;17.00;99.90
10472;DHT22;5283;48.876;8.962;2023-07-13T01:29:52;17.00;99.90
10472;DHT22;5283;48.876;8.962;2023-07-13T01:32:23;17.00;99.90
10472;DHT22;5283;48.876;8.962;2023-07-13T01:34:51;16.90;99.90
10472;DHT22;5283;48.876;8.962;2023-07-13T01:37:20;17.00;99.90
10472;DHT22;5283;48.876;8.962;2023-07-13T01:39:47;17.00;99.90
10472;DHT22;5283;48.876;8.962;2023-07-13T01:42:14;17.10;99.90
10472;DHT22;5283;48.876;8.962;2023-07-13T01:44:41;17.10;99.90
10472;DHT22;5283;48.876;8.962;2023-07-13T01:47:08;17.10;99.90
10472;DHT22;5283;48.876;8.962;2023-07-13T01:49:34;17.10;99.90
10472;DHT22;5283;48.876;8.962;2023-07-13T01:52:01;17.10;99.90
10472;DHT22;5283;48.876;8.962;2023-07-13T01:54:28;17.00;99.90
10472;DHT22;5283;48.876;8.962;2023-07-13T01:56:54;17.00;99.90
10472;DHT22;5283;48.876;8.962;2023-07-13T01:59:21;16.80;99.90
10472;DHT22;5283;48.876;8.962;2023-07-13T02:01:48;16.60;99.90
10472;DHT22;5283;48.876;8.962;2023-07-13T02:04:15;16.50;99.90
10472;DHT22;5283;48.876;8.962;2023-07-13T02:06:41;16.30;99.90
10472;DHT22;5283;48.876;8.962;2023-07-13T02:09:08;16.20;99.90
10472;DHT22;5283;48.876;8.962;2023-07-13T02:11:35;16.40;99.90
10472;DHT22;5283;48.876;8.962;2023-07-13T02:14:02;16.60;99.90
10472;DHT22;5283;48.876;8.962;2023-07-13T02:16:30;16.50;99.90
10472;DHT22;5283;48.876;8.962;2023-07-13T02:18:57;16.40;99.90
10472;DHT22;5283;48.876;8.962;2023-07-13T02:21:24;16.40;99.90
10472;DHT22;5283;48.876;8.962;2023-07-13T02:23:51;16.20;99.90
10472;DHT22;5283;48.876;8.962;2023-07-13T02:26:19;15.90;99.90
10472;DHT22;5283;48.876;8.962;2023-07-13T02:28:46;15.50;99.90
10472;DHT22;5283;48.876;8.962;2023-07-13T02:31:14;15.10;99.90
10472;DHT22;5283;48.876;8.962;2023-07-13T02:33:42;14.80;99.90
10472;DHT22;5283;48.876;8.962;2023-07-13T02:36:09;14.50;99.90
10472;DHT22;5283;48.876;8.962;2023-07-13T02:38:37;14.30;99.90
10472;DHT22;5283;48.876;8.962;2023-07-13T02:41:04;14.00;99.90
10472;DHT22;5283;48.876;8.962;2023-07-13T02:43:32;13.90;99.90
10472;DHT22;5283;48.876;8.962;2023-07-13T02:46:00;13.70;99.90
10472;DHT22;5283;48.876;8.962;2023-07-13T02:48:37;13.60;99.90
10472;DHT22;5283;48.876;8.962;2023-07-13T02:51:04;13.50;99.90
10472;DHT22;5283;48.876;8.962;2023-07-13T02:53:31;13.40;99.90
10472;DHT22;5283;48.876;8.962;2023-07-13T02:55:58;13.30;99.90
10472;DHT22;5283;48.876;8.962;2023-07-13T02:58:25;13.20;99.90
10472;DHT22;5283;48.876;8.962;2023-07-13T03:00:52;13.20;99.90
10472;DHT22;5283;48.876;8.962;2023-07-13T03:03:18;13.10;99.90
10472;DHT22;5283;48.876;8.962;2023-07-13T03:05:45;13.00;99.90
10472;DHT22;5283;48.876;8.962;2023-07-13T03:08:16;13.00;99.90
10472;DHT22;5283;48.876;8.962;2023-07-13T03:10:44;13.00;99.90
10472;DHT22;5283;48.876;8.962;2023-07-13T03:13:11;12.90;99.90
10472;DHT22;5283;48.876;8.962;2023-07-13T03:15:38;12.80;99.90
10472;DHT22;5283;48.876;8.962;2023-07-13T03:18:04;12.90;99.90
10472;DHT22;5283;48.876;8.962;2023-07-13T03:20:34;12.80;99.90
10472;DHT22;5283;48.876;8.962;2023-07-13T03:23:01;12.70;99.90
10472;DHT22;5283;48.876;8.962;2023-07-13T03:25:29;12.60;99.90
10472;DHT22;5283;48.876;8.962;2023-07-13T03:27:56;12.50;99.90
10472;DHT22;5283;48.876;8.962;2023-07-13T03:30:23;12.40;99.90
10472;DHT22;5283;48.876;8.962;2023-07-13T03:32:50;12.50;99.90
10472;DHT22;5283;48.876;8.962;2023-07-13T03:35:17;12.40;99.90
10472;DHT22;5283;48.876;8.962;2023-07-13T03:37:43;12.50;99.90
10472;DHT22;5283;48.876;8.962;2023-07-13T03:40:12;12.50;99.90
10472;DHT22;5283;48.876;8.962;2023-07-13T03:42:38;12.50;99.90
10472;DHT22;5283;48.876;8.962;2023-07-13T03:45:06;12.60;99.90
10472;DHT22;5283;48.876;8.962;2023-07-13T03:47:33;12.50;99.90
10472;DHT22;5283;48.876;8.962;2023-07-13T03:49:59;12.60;99.90
10472;DHT22;5283;48.876;8.962;2023-07-13T03:52:26;12.50;99.90
10472;DHT22;5283;48.876;8.962;2023-07-13T03:54:53;12.60;99.90
10472;DHT22;5283;48.876;8.962;2023-07-13T03:57:20;12.70;99.90
10472;DHT22;5283;48.876;8.962;2023-07-13T03:59:47;12.70;99.90
10472;DHT22;5283;48.876;8.962;2023-07-13T04:02:13;12.80;99.90
10472;DHT22;5283;48.876;8.962;2023-07-13T04:04:40;12.90;99.90
10472;DHT22;5283;48.876;8.962;2023-07-13T04:07:07;12.90;99.90
10472;DHT22;5283;48.876;8.962;2023-07-13T04:09:35;13.00;99.90
10472;DHT22;5283;48.876;8.962;2023-07-13T04:12:02;12.90;99.90
10472;DHT22;5283;48.876;8.962;2023-07-13T04:14:29;12.90;99.90
10472;DHT22;5283;48.876;8.962;2023-07-13T04:16:56;12.80;99.90
10472;DHT22;5283;48.876;8.962;2023-07-13T04:19:23;12.90;99.90
10472;DHT22;5283;48.876;8.962;2023-07-13T04:21:50;12.80;99.90
10472;DHT22;5283;48.876;8.962;2023-07-13T04:24:17;12.80;99.90
10472;DHT22;5283;48.876;8.962;2023-07-13T04:26:43;12.90;99.90
10472;DHT22;5283;48.876;8.962;2023-07-13T04:29:10;12.90;99.90
10472;DHT22;5283;48.876;8.962;2023-07-13T04:31:37;12.90;99.90
10472;DHT22;5283;48.876;8.962;2023-07-13T04:34:04;12.90;99.90
10472;DHT22;5283;48.876;8.962;2023-07-13T04:36:31;13.00;99.90
10472;DHT22;5283;48.876;8.962;2023-07-13T04:38:57;13.10;99.90
10472;DHT22;5283;48.876;8.962;2023-07-13T04:41:24;13.20;99.90
10472;DHT22;5283;48.876;8.962;2023-07-13T04:43:51;13.30;99.90
10472;DHT22;5283;48.876;8.962;2023-07-13T04:46:19;13.30;99.90
10472;DHT22;5283;48.876;8.962;2023-07-13T04:48:46;13.40;99.90
10472;DHT22;5283;48.876;8.962;2023-07-13T04:51:15;13.50;99.90
10472;DHT22;5283;48.876;8.962;2023-07-13T04:53:42;13.60;99.90
10472;DHT22;5283;48.876;8.962;2023-07-13T04:56:09;13.70;99.90
10472;DHT22;5283;48.876;8.962;2023-07-13T04:58:36;14.10;99.90
10472;DHT22;5283;48.876;8.962;2023-07-13T05:01:05;14.70;99.90
10472;DHT22;5283;48.876;8.962;2023-07-13T05:03:32;15.30;99.90
10472;DHT22;5283;48.876;8.962;2023-07-13T05:06:02;16.60;99.90
10472;DHT22;5283;48.876;8.962;2023-07-13T05:08:29;18.10;99.90
10472;DHT22;5283;48.876;8.962;2023-07-13T05:10:56;19.30;99.90
10472;DHT22;5283;48.876;8.962;2023-07-13T05:13:23;20.10;99.90
10472;DHT22;5283;48.876;8.962;2023-07-13T05:16:16;20.30;99.90
10472;DHT22;5283;48.876;8.962;2023-07-13T05:18:43;20.00;99.90
10472;DHT22;5283;48.876;8.962;2023-07-13T05:21:10;19.70;99.90
10472;DHT22;5283;48.876;8.962;2023-07-13T05:23:38;19.30;99.90
10472;DHT22;5283;48.876;8.962;2023-07-13T05:26:05;19.00;99.90
10472;DHT22;5283;48.876;8.962;2023-07-13T05:28:33;18.70;99.90
10472;DHT22;5283;48.876;8.962;2023-07-13T05:31:00;18.40;99.90
10472;DHT22;5283;48.876;8.962;2023-07-13T05:33:27;18.30;99.90
10472;DHT22;5283;48.876;8.962;2023-07-13T05:35:54;18.20;99.90
10472;DHT22;5283;48.876;8.962;2023-07-13T05:38:21;18.10;99.90
10472;DHT22;5283;48.876;8.962;2023-07-13T05:40:49;18.20;99.90
10472;DHT22;5283;48.876;8.962;2023-07-13T05:43:16;18.40;99.90
10472;DHT22;5283;48.876;8.962;2023-07-13T05:45:43;18.70;99.90
10472;DHT22;5283;48.876;8.962;2023-07-13T05:48:09;18.80;99.90
10472;DHT22;5283;48.876;8.962;2023-07-13T05:50:36;18.70;99.90
10472;DHT22;5283;48.876;8.962;2023-07-13T05:53:03;19.00;99.90
10472;DHT22;5283;48.876;8.962;2023-07-13T05:55:30;19.80;99.90
10472;DHT22;5283;48.876;8.962;2023-07-13T05:57:57;20.70;99.90
10472;DHT22;5283;48.876;8.962;2023-07-13T06:00:25;21.60;99.90
10472;DHT22;5283;48.876;8.962;2023-07-13T06:02:52;22.20;99.90
10472;DHT22;5283;48.876;8.962;2023-07-13T06:05:19;22.80;99.90
10472;DHT22;5283;48.876;8.962;2023-07-13T06:07:46;23.50;99.90
10472;DHT22;5283;48.876;8.962;2023-07-13T06:10:13;24.20;99.90
10472;DHT22;5283;48.876;8.962;2023-07-13T06:12:39;24.60;99.90
10472;DHT22;5283;48.876;8.962;2023-07-13T06:15:07;24.50;99.90
10472;DHT22;5283;48.876;8.962;2023-07-13T06:17:34;24.20;99.90
10472;DHT22;5283;48.876;8.962;2023-07-13T06:20:02;23.80;99.90
10472;DHT22;5283;48.876;8.962;2023-07-13T06:22:28;23.60;99.90
10472;DHT22;5283;48.876;8.962;2023-07-13T06:24:56;23.50;99.90
10472;DHT22;5283;48.876;8.962;2023-07-13T06:27:23;23.70;99.90
10472;DHT22;5283;48.876;8.962;2023-07-13T06:29:50;24.10;99.90
10472;DHT22;5283;48.876;8.962;2023-07-13T06:32:17;24.70;99.90
10472;DHT22;5283;48.876;8.962;2023-07-13T06:34:44;25.30;99.90
10472;DHT22;5283;48.876;8.962;2023-07-13T06:37:11;25.70;99.90
10472;DHT22;5283;48.876;8.962;2023-07-13T06:39:38;26.10;99.90
10472;DHT22;5283;48.876;8.962;2023-07-13T06:42:05;26.50;99.90
10472;DHT22;5283;48.876;8.962;2023-07-13T06:44:32;26.60;99.90
10472;DHT22;5283;48.876;8.962;2023-07-13T06:46:59;25.10;99.90
10472;DHT22;5283;48.876;8.962;2023-07-13T06:49:25;24.10;99.90
10472;DHT22;5283;48.876;8.962;2023-07-13T06:51:52;23.80;99.90
10472;DHT22;5283;48.876;8.962;2023-07-13T06:54:19;24.50;99.90
10472;DHT22;5283;48.876;8.962;2023-07-13T06:56:46;24.00;99.90
10472;DHT22;5283;48.876;8.962;2023-07-13T06:59:12;23.40;99.90
10472;DHT22;5283;48.876;8.962;2023-07-13T07:01:39;23.20;99.90
10472;DHT22;5283;48.876;8.962;2023-07-13T07:04:07;23.40;99.90
10472;DHT22;5283;48.876;8.962;2023-07-13T07:06:34;23.90;99.90
10472;DHT22;5283;48.876;8.962;2023-07-13T07:09:01;25.20;99.90
10472;DHT22;5283;48.876;8.962;2023-07-13T07:11:28;25.90;99.90
10472;DHT22;5283;48.876;8.962;2023-07-13T07:13:55;26.20;99.90
10472;DHT22;5283;48.876;8.962;2023-07-13T07:16:23;26.60;99.90
10472;DHT22;5283;48.876;8.962;2023-07-13T07:18:51;26.90;99.90
10472;DHT22;5283;48.876;8.962;2023-07-13T07:21:18;27.70;99.90
10472;DHT22;5283;48.876;8.962;2023-07-13T07:23:45;28.20;98.60
10472;DHT22;5283;48.876;8.962;2023-07-13T07:26:12;28.00;98.00
10472;DHT22;5283;48.876;8.962;2023-07-13T07:28:39;26.70;99.20
10472;DHT22;5283;48.876;8.962;2023-07-13T07:31:07;25.80;99.90
10472;DHT22;5283;48.876;8.962;2023-07-13T07:33:37;25.90;99.90
10472;DHT22;5283;48.876;8.962;2023-07-13T07:36:04;25.40;99.90
10472;DHT22;5283;48.876;8.962;2023-07-13T07:38:34;26.20;99.90
10472;DHT22;5283;48.876;8.962;2023-07-13T07:41:06;27.00;97.90
10472;DHT22;5283;48.876;8.962;2023-07-13T07:43:36;26.00;98.80
10472;DHT22;5283;48.876;8.962;2023-07-13T07:46:03;25.50;99.60
10472;DHT22;5283;48.876;8.962;2023-07-13T07:48:31;26.20;97.70
10472;DHT22;5283;48.876;8.962;2023-07-13T07:50:58;26.40;97.30
10472;DHT22;5283;48.876;8.962;2023-07-13T07:53:24;26.10;98.00
10472;DHT22;5283;48.876;8.962;2023-07-13T07:55:51;25.70;97.00
10472;DHT22;5283;48.876;8.962;2023-07-13T07:58:21;25.90;96.80
10472;DHT22;5283;48.876;8.962;2023-07-13T08:00:51;25.40;98.30
10472;DHT22;5283;48.876;8.962;2023-07-13T08:03:21;26.10;99.90
10472;DHT22;5283;48.876;8.962;2023-07-13T08:05:54;26.90;96.80
10472;DHT22;5283;48.876;8.962;2023-07-13T08:08:24;27.60;97.00
10472;DHT22;5283;48.876;8.962;2023-07-13T08:10:51;27.70;96.40
10472;DHT22;5283;48.876;8.962;2023-07-13T08:13:18;28.60;96.40
10472;DHT22;5283;48.876;8.962;2023-07-13T08:15:46;28.30;95.00
10472;DHT22;5283;48.876;8.962;2023-07-13T08:18:13;27.40;94.70
10472;DHT22;5283;48.876;8.962;2023-07-13T08:20:41;26.50;94.00
10472;DHT22;5283;48.876;8.962;2023-07-13T08:23:09;25.60;95.40
10472;DHT22;5283;48.876;8.962;2023-07-13T08:25:36;25.60;96.80
10472;DHT22;5283;48.876;8.962;2023-07-13T08:28:04;25.30;96.90
10472;DHT22;5283;48.876;8.962;2023-07-13T08:30:31;24.80;96.30
10472;DHT22;5283;48.876;8.962;2023-07-13T08:32:57;25.90;96.20
10472;DHT22;5283;48.876;8.962;2023-07-13T08:35:25;25.60;98.20
10472;DHT22;5283;48.876;8.962;2023-07-13T08:37:52;25.40;96.00
10472;DHT22;5283;48.876;8.962;2023-07-13T08:40:24;25.40;97.10
10472;DHT22;5283;48.876;8.962;2023-07-13T08:42:57;26.00;97.30
10472;DHT22;5283;48.876;8.962;2023-07-13T08:45:45;26.00;96.70
10472;DHT22;5283;48.876;8.962;2023-07-13T08:48:32;25.10;98.20
10472;DHT22;5283;48.876;8.962;2023-07-13T08:51:53;24.50;98.30
10472;DHT22;5283;48.876;8.962;2023-07-13T08:54:03;24.60;97.80
10472;DHT22;5283;48.876;8.962;2023-07-13T08:56:32;24.20;99.50
10472;DHT22;5283;48.876;8.962;2023-07-13T08:59:20;24.20;98.00
10472;DHT22;5283;48.876;8.962;2023-07-13T09:04:49;24.40;97.50
10472;DHT22;5283;48.876;8.962;2023-07-13T09:07:37;24.10;97.70
10472;DHT22;5283;48.876;8.962;2023-07-13T09:10:21;23.80;99.90
10472;DHT22;5283;48.876;8.962;2023-07-13T09:12:59;24.00;98.00
10472;DHT22;5283;48.876;8.962;2023-07-13T09:15:30;23.90;98.10
10472;DHT22;5283;48.876;8.962;2023-07-13T09:18:11;24.00;99.90
10472;DHT22;5283;48.876;8.962;2023-07-13T09:20:48;24.20;99.00
10472;DHT22;5283;48.876;8.962;2023-07-13T09:23:19;24.10;98.80
10472;DHT22;5283;48.876;8.962;2023-07-13T09:25:49;23.90;99.20
10472;DHT22;5283;48.876;8.962;2023-07-13T09:28:26;24.00;99.90
10472;DHT22;5283;48.876;8.962;2023-07-13T09:31:10;24.10;98.60
10472;DHT22;5283;48.876;8.962;2023-07-13T09:33:39;24.30;98.30
10472;DHT22;5283;48.876;8.962;2023-07-13T09:36:33;24.20;97.30
10472;DHT22;5283;48.876;8.962;2023-07-13T09:41:42;24.10;98.50
10472;DHT22;5283;48.876;8.962;2023-07-13T09:44:13;24.10;98.00
10472;DHT22;5283;48.876;8.962;2023-07-13T09:46:54;24.20;97.70
10472;DHT22;5283;48.876;8.962;2023-07-13T09:49:35;24.00;98.70
10472;DHT22;5283;48.876;8.962;2023-07-13T09:52:05;24.10;97.40
10472;DHT22;5283;48.876;8.962;2023-07-13T09:54:34;24.30;98.80
10472;DHT22;5283;48.876;8.962;2023-07-13T09:57:03;24.40;98.10
10472;DHT22;5283;48.876;8.962;2023-07-13T09:59:41;24.30;97.70
10472;DHT22;5283;48.876;8.962;2023-07-13T10:02:29;24.10;95.90
10472;DHT22;5283;48.876;8.962;2023-07-13T10:05:06;23.70;96.70
10472;DHT22;5283;48.876;8.962;2023-07-13T10:07:39;23.80;98.70
10472;DHT22;5283;48.876;8.962;2023-07-13T10:10:15;24.00;97.80
10472;DHT22;5283;48.876;8.962;2023-07-13T10:12:43;24.30;96.90
10472;DHT22;5283;48.876;8.962;2023-07-13T10:15:19;24.50;98.20
10472;DHT22;5283;48.876;8.962;2023-07-13T10:17:50;24.30;97.90
10472;DHT22;5283;48.876;8.962;2023-07-13T10:20:17;24.30;98.10
10472;DHT22;5283;48.876;8.962;2023-07-13T10:22:52;24.30;96.80
10472;DHT22;5283;48.876;8.962;2023-07-13T10:25:24;24.30;96.70
10472;DHT22;5283;48.876;8.962;2023-07-13T10:28:00;24.20;96.40
10472;DHT22;5283;48.876;8.962;2023-07-13T10:30:32;24.40;98.30
10472;DHT22;5283;48.876;8.962;2023-07-13T10:33:02;24.50;97.30
10472;DHT22;5283;48.876;8.962;2023-07-13T10:35:31;24.60;97.70
10472;DHT22;5283;48.876;8.962;2023-07-13T10:38:07;24.60;98.20
10472;DHT22;5283;48.876;8.962;2023-07-13T10:40:48;24.60;97.20
10472;DHT22;5283;48.876;8.962;2023-07-13T10:43:22;24.30;96.10
10472;DHT22;5283;48.876;8.962;2023-07-13T10:45:51;24.20;97.40
10472;DHT22;5283;48.876;8.962;2023-07-13T10:48:18;24.00;96.90
10472;DHT22;5283;48.876;8.962;2023-07-13T10:50:48;24.10;97.10
10472;DHT22;5283;48.876;8.962;2023-07-13T10:53:20;24.50;95.20
10472;DHT22;5283;48.876;8.962;2023-07-13T10:58:32;24.80;95.80
10472;DHT22;5283;48.876;8.962;2023-07-13T11:01:09;24.90;95.90
10472;DHT22;5283;48.876;8.962;2023-07-13T11:03:38;25.00;95.90
10472;DHT22;5283;48.876;8.962;2023-07-13T11:21:20;24.60;96.10
10472;DHT22;5283;48.876;8.962;2023-07-13T11:29:12;25.30;95.80
10472;DHT22;5283;48.876;8.962;2023-07-13T11:31:56;24.90;93.00
10472;DHT22;5283;48.876;8.962;2023-07-13T11:34:36;24.80;92.40
10472;DHT22;5283;48.876;8.962;2023-07-13T11:37:12;24.90;92.80
10472;DHT22;5283;48.876;8.962;2023-07-13T11:39:44;24.90;93.40
10472;DHT22;5283;48.876;8.962;2023-07-13T11:42:15;25.00;94.10
10472;DHT22;5283;48.876;8.962;2023-07-13T11:44:45;25.20;93.10
10472;DHT22;5283;48.876;8.962;2023-07-13T11:47:22;25.20;93.80
10472;DHT22;5283;48.876;8.962;2023-07-13T11:49:53;25.40;95.50
10472;DHT22;5283;48.876;8.962;2023-07-13T11:52:35;25.60;92.60
10472;DHT22;5283;48.876;8.962;2023-07-13T11:55:14;25.30;91.20
10472;DHT22;5283;48.876;8.962;2023-07-13T11:57:56;25.50;93.10
10472;DHT22;5283;48.876;8.962;2023-07-13T12:00:29;25.50;95.10
10472;DHT22;5283;48.876;8.962;2023-07-13T12:03:01;25.50;92.80
10472;DHT22;5283;48.876;8.962;2023-07-13T12:05:29;25.60;94.00
10472;DHT22;5283;48.876;8.962;2023-07-13T12:07:58;25.50;90.70
10472;DHT22;5283;48.876;8.962;2023-07-13T12:10:30;25.60;91.00
10472;DHT22;5283;48.876;8.962;2023-07-13T12:13:02;25.70;91.20
10472;DHT22;5283;48.876;8.962;2023-07-13T12:15:45;25.70;89.00
10472;DHT22;5283;48.876;8.962;2023-07-13T12:18:17;25.70;92.10
10472;DHT22;5283;48.876;8.962;2023-07-13T12:20:46;26.00;90.30
10472;DHT22;5283;48.876;8.962;2023-07-13T12:23:23;25.60;90.70
10472;DHT22;5283;48.876;8.962;2023-07-13T12:25:52;25.20;92.30
10472;DHT22;5283;48.876;8.962;2023-07-13T12:28:22;25.20;89.60
10472;DHT22;5283;48.876;8.962;2023-07-13T12:30:49;25.20;91.10
10472;DHT22;5283;48.876;8.962;2023-07-13T12:33:28;25.30;92.30
10472;DHT22;5283;48.876;8.962;2023-07-13T12:35:55;25.60;91.50
10472;DHT22;5283;48.876;8.962;2023-07-13T12:38:24;25.40;90.40
10472;DHT22;5283;48.876;8.962;2023-07-13T12:40:52;25.50;91.80
10472;DHT22;5283;48.876;8.962;2023-07-13T12:43:21;25.40;92.50
10472;DHT22;5283;48.876;8.962;2023-07-13T12:46:03;25.50;92.00
10472;DHT22;5283;48.876;8.962;2023-07-13T12:48:37;25.50;90.80
10472;DHT22;5283;48.876;8.962;2023-07-13T12:51:13;25.30;92.70
10472;DHT22;5283;48.876;8.962;2023-07-13T12:53:42;25.50;92.40
10472;DHT22;5283;48.876;8.962;2023-07-13T12:56:20;25.80;91.80
10472;DHT22;5283;48.876;8.962;2023-07-13T12:58:48;26.10;91.90
10472;DHT22;5283;48.876;8.962;2023-07-13T13:01:28;26.20;90.60
10472;DHT22;5283;48.876;8.962;2023-07-13T13:03:56;25.90;90.90
10472;DHT22;5283;48.876;8.962;2023-07-13T13:06:26;26.00;91.60
10472;DHT22;5283;48.876;8.962;2023-07-13T13:08:56;26.00;92.20
10472;DHT22;5283;48.876;8.962;2023-07-13T13:11:26;26.10;91.00
10472;DHT22;5283;48.876;8.962;2023-07-13T13:13:53;26.00;91.80
10472;DHT22;5283;48.876;8.962;2023-07-13T13:16:29;26.20;91.20
10472;DHT22;5283;48.876;8.962;2023-07-13T13:19:05;26.20;91.90
10472;DHT22;5283;48.876;8.962;2023-07-13T13:21:37;26.00;93.70
10472;DHT22;5283;48.876;8.962;2023-07-13T13:24:14;25.70;92.20
10472;DHT22;5283;48.876;8.962;2023-07-13T13:26:42;25.70;90.90
10472;DHT22;5283;48.876;8.962;2023-07-13T13:29:15;25.90;92.10
10472;DHT22;5283;48.876;8.962;2023-07-13T13:31:43;26.00;91.90
10472;DHT22;5283;48.876;8.962;2023-07-13T13:34:13;25.90;91.40
10472;DHT22;5283;48.876;8.962;2023-07-13T13:36:41;25.80;91.90
10472;DHT22;5283;48.876;8.962;2023-07-13T13:39:27;25.80;92.90
10472;DHT22;5283;48.876;8.962;2023-07-13T13:41:56;25.90;92.60
10472;DHT22;5283;48.876;8.962;2023-07-13T13:44:23;25.90;91.20
10472;DHT22;5283;48.876;8.962;2023-07-13T13:46:53;26.10;90.40
10472;DHT22;5283;48.876;8.962;2023-07-13T13:49:24;26.10;91.10
10472;DHT22;5283;48.876;8.962;2023-07-13T13:51:53;26.00;90.20
10472;DHT22;5283;48.876;8.962;2023-07-13T13:54:21;26.00;90.70
10472;DHT22;5283;48.876;8.962;2023-07-13T13:56:50;25.80;88.20
10472;DHT22;5283;48.876;8.962;2023-07-13T13:59:18;25.70;88.30
10472;DHT22;5283;48.876;8.962;2023-07-13T14:01:46;25.70;90.90
10472;DHT22;5283;48.876;8.962;2023-07-13T14:04:21;26.00;92.00
10472;DHT22;5283;48.876;8.962;2023-07-13T14:06:49;26.10;92.40
10472;DHT22;5283;48.876;8.962;2023-07-13T14:09:18;26.00;91.70
10472;DHT22;5283;48.876;8.962;2023-07-13T14:11:46;25.80;90.70
10472;DHT22;5283;48.876;8.962;2023-07-13T14:14:20;25.80;91.40
10472;DHT22;5283;48.876;8.962;2023-07-13T14:16:49;25.80;90.30
10472;DHT22;5283;48.876;8.962;2023-07-13T14:19:21;25.80;92.00
10472;DHT22;5283;48.876;8.962;2023-07-13T14:21:48;26.00;91.50
10472;DHT22;5283;48.876;8.962;2023-07-13T14:24:16;26.00;91.50
10472;DHT22;5283;48.876;8.962;2023-07-13T14:26:45;25.90;91.30
10472;DHT22;5283;48.876;8.962;2023-07-13T14:29:17;25.80;92.20
10472;DHT22;5283;48.876;8.962;2023-07-13T14:31:45;25.80;91.80
10472;DHT22;5283;48.876;8.962;2023-07-13T14:34:14;25.80;92.40
10472;DHT22;5283;48.876;8.962;2023-07-13T14:36:48;25.90;91.50
10472;DHT22;5283;48.876;8.962;2023-07-13T14:39:21;25.90;90.80
10472;DHT22;5283;48.876;8.962;2023-07-13T14:41:54;25.70;92.20
10472;DHT22;5283;48.876;8.962;2023-07-13T14:44:27;25.70;92.70
10472;DHT22;5283;48.876;8.962;2023-07-13T14:46:57;25.70;91.00
10472;DHT22;5283;48.876;8.962;2023-07-13T14:51:51;25.70;90.40
10472;DHT22;5283;48.876;8.962;2023-07-13T14:54:18;25.80;90.60
10472;DHT22;5283;48.876;8.962;2023-07-13T14:56:46;25.90;90.50
10472;DHT22;5283;48.876;8.962;2023-07-13T14:59:13;26.10;91.70
10472;DHT22;5283;48.876;8.962;2023-07-13T15:01:41;26.30;91.00
10472;DHT22;5283;48.876;8.962;2023-07-13T15:04:08;26.10;90.90
10472;DHT22;5283;48.876;8.962;2023-07-13T15:06:57;26.00;91.30
10472;DHT22;5283;48.876;8.962;2023-07-13T15:09:24;26.10;90.90
10472;DHT22;5283;48.876;8.962;2023-07-13T15:11:54;26.00;91.10
10472;DHT22;5283;48.876;8.962;2023-07-13T15:14:22;25.80;90.20
10472;DHT22;5283;48.876;8.962;2023-07-13T15:16:52;25.50;91.00
10472;DHT22;5283;48.876;8.962;2023-07-13T15:19:21;25.40;90.00
10472;DHT22;5283;48.876;8.962;2023-07-13T15:21:50;25.70;91.70
10472;DHT22;5283;48.876;8.962;2023-07-13T15:24:18;25.80;90.10
10472;DHT22;5283;48.876;8.962;2023-07-13T15:26:48;25.90;90.20
10472;DHT22;5283;48.876;8.962;2023-07-13T15:29:16;26.00;91.40
10472;DHT22;5283;48.876;8.962;2023-07-13T15:31:44;26.10;90.20
10472;DHT22;5283;48.876;8.962;2023-07-13T15:34:20;26.00;90.40
10472;DHT22;5283;48.876;8.962;2023-07-13T15:36:47;25.80;90.70
10472;DHT22;5283;48.876;8.962;2023-07-13T15:39:16;25.90;90.60
10472;DHT22;5283;48.876;8.962;2023-07-13T15:41:44;25.70;91.30
10472;DHT22;5283;48.876;8.962;2023-07-13T15:44:31;25.60;90.10
10472;DHT22;5283;48.876;8.962;2023-07-13T15:46:58;25.50;91.10
10472;DHT22;5283;48.876;8.962;2023-07-13T15:49:27;25.50;90.50
10472;DHT22;5283;48.876;8.962;2023-07-13T15:51:54;25.50;90.70
10472;DHT22;5283;48.876;8.962;2023-07-13T15:54:22;25.50;91.10
10472;DHT22;5283;48.876;8.962;2023-07-13T15:56:54;25.60;91.10
10472;DHT22;5283;48.876;8.962;2023-07-13T15:59:22;25.50;91.30
10472;DHT22;5283;48.876;8.962;2023-07-13T16:01:49;25.40;91.00
10472;DHT22;5283;48.876;8.962;2023-07-13T16:04:16;25.40;91.70
10472;DHT22;5283;48.876;8.962;2023-07-13T16:06:46;25.40;90.60
10472;DHT22;5283;48.876;8.962;2023-07-13T16:09:20;25.40;90.80
10472;DHT22;5283;48.876;8.962;2023-07-13T16:11:49;25.40;91.30
10472;DHT22;5283;48.876;8.962;2023-07-13T16:14:17;25.40;91.30
10472;DHT22;5283;48.876;8.962;2023-07-13T16:16:45;25.30;92.10
10472;DHT22;5283;48.876;8.962;2023-07-13T16:19:13;25.30;91.60
10472;DHT22;5283;48.876;8.962;2023-07-13T16:21:44;25.20;90.80
10472;DHT22;5283;48.876;8.962;2023-07-13T16:34:43;25.00;91.30
10472;DHT22;5283;48.876;8.962;2023-07-13T16:37:15;24.90;91.90
10472;DHT22;5283;48.876;8.962;2023-07-13T16:39:51;24.90;91.10
10472;DHT22;5283;48.876;8.962;2023-07-13T16:42:22;24.80;92.60
10472;DHT22;5283;48.876;8.962;2023-07-13T16:44:48;24.20;91.50